Levadhia, Greece
Current Conditions -  °F | °C
As of 7:20 PM on Monday 20 Oct 2014 (Local Time) from LGTG Reporting Station
Clear Clear  
Wind Chill: 61°   Ceiling: Unl
Heat Index: 61°   Visibility: 6mi
Dew Point: 46°   Wind: 0mph
Humidity: 59%   Direction: NA
Pressure: 30.09"   Gusts: NA
Location:  38.44°N, 22.87°E
Report Text: LGTG 201720Z 00000KT CAVOK 16/08 Q1019 BLU
Loading
Personal Weather Stations






























Interactive Weather Map
Tropical Storm Tracking
New forecast layout! Learn more

10-Day Weather Forecast

Advertisements
Track Severe Weather on mobile